createdAt,value
2022-10-09T00:01:12.590Z,100965.81
2022-10-09T00:06:18.074Z,100962.53
2022-10-09T00:11:26.274Z,100966.56
2022-10-09T00:16:28.754Z,100977.19
2022-10-09T00:21:34.443Z,100985.16
2022-10-09T00:26:36.915Z,100981.53
2022-10-09T00:37:10.705Z,100992.03
2022-10-09T00:42:13.798Z,100992.84
2022-10-09T00:47:42.093Z,101004.66
2022-10-09T00:52:44.962Z,101003.91
2022-10-09T00:57:47.768Z,101018.00
2022-10-09T01:02:50.244Z,101028.06
2022-10-09T01:07:58.879Z,101022.22
2022-10-09T01:13:20.119Z,101024.56
2022-10-09T01:18:25.007Z,101013.16
2022-10-09T01:23:51.587Z,101024.41
2022-10-09T01:28:56.644Z,101025.50
2022-10-09T01:34:00.095Z,101017.72
2022-10-09T01:39:04.476Z,101036.66
2022-10-09T01:44:32.343Z,101039.56
2022-10-09T01:49:55.215Z,101049.63
2022-10-09T01:55:22.183Z,101054.09
2022-10-09T02:00:24.995Z,101039.00
2022-10-09T02:05:29.381Z,101048.94
2022-10-09T02:10:33.300Z,101051.19
2022-10-09T02:15:39.693Z,101063.97
2022-10-09T02:20:51.781Z,101066.88
2022-10-09T02:25:54.379Z,101076.44
2022-10-09T02:31:04.678Z,101085.91
2022-10-09T02:36:07.123Z,101098.41
2022-10-09T02:41:09.698Z,101097.66
2022-10-09T02:46:12.098Z,101100.06
2022-10-09T02:51:14.614Z,101112.94
2022-10-09T02:56:16.954Z,101122.38
2022-10-09T03:01:19.783Z,101128.16
2022-10-09T03:06:24.389Z,101134.31
2022-10-09T03:11:27.240Z,101138.50
2022-10-09T03:16:29.741Z,101145.38
2022-10-09T03:21:32.098Z,101147.03
2022-10-09T03:26:34.558Z,101147.97
2022-10-09T03:31:51.994Z,101167.69
2022-10-09T03:36:55.300Z,101161.53
2022-10-09T03:41:57.622Z,101164.09
2022-10-09T03:47:00.096Z,101160.22
2022-10-09T03:52:02.518Z,101173.53
2022-10-09T03:57:04.898Z,101171.56
2022-10-09T04:02:07.279Z,101181.00
2022-10-09T04:07:09.633Z,101188.53
2022-10-09T04:12:11.962Z,101190.81
2022-10-09T04:17:14.297Z,101199.38
2022-10-09T04:22:16.627Z,101194.72
2022-10-09T04:27:19.027Z,101189.09
2022-10-09T04:32:21.458Z,101199.72
2022-10-09T04:37:23.795Z,101216.41
2022-10-09T04:42:26.167Z,101219.19
2022-10-09T04:47:28.556Z,101238.06
2022-10-09T04:52:30.889Z,101240.22
2022-10-09T04:57:33.217Z,101249.69
2022-10-09T05:02:35.689Z,101249.31
2022-10-09T05:07:38.683Z,101250.88
2022-10-09T05:12:41.031Z,101257.78
2022-10-09T05:17:43.436Z,101260.75
2022-10-09T05:22:47.277Z,101267.91
2022-10-09T05:27:49.777Z,101272.16
2022-10-09T05:32:52.307Z,101284.78
2022-10-09T05:37:54.815Z,101284.78
2022-10-09T05:42:57.240Z,101295.91
2022-10-09T05:47:59.761Z,101279.63
2022-10-09T05:53:02.366Z,101307.16
2022-10-09T05:58:04.961Z,101306.34
2022-10-09T06:03:07.414Z,101320.00
2022-10-09T06:08:09.767Z,101326.66
2022-10-09T06:13:12.096Z,101339.00
2022-10-09T06:18:14.563Z,101342.81
2022-10-09T06:23:16.907Z,101356.63
2022-10-09T06:28:19.530Z,101364.63
2022-10-09T06:33:21.994Z,101381.41
2022-10-09T06:38:24.697Z,101377.34
2022-10-09T06:43:27.097Z,101381.34
2022-10-09T06:48:31.270Z,101380.03
2022-10-09T06:53:38.099Z,101398.88
2022-10-09T06:58:41.181Z,101413.41
2022-10-09T07:03:45.595Z,101416.75
2022-10-09T07:08:55.227Z,101430.91
2022-10-09T07:13:59.902Z,101425.81
2022-10-09T07:19:03.991Z,101437.00
2022-10-09T07:24:07.019Z,101440.56
2022-10-09T07:29:11.095Z,101454.28
2022-10-09T07:34:13.703Z,101451.81
2022-10-09T07:39:19.311Z,101457.25
2022-10-09T07:44:21.669Z,101463.28
2022-10-09T07:49:24.054Z,101484.50
2022-10-09T07:54:26.755Z,101481.53
2022-10-09T07:59:29.128Z,101485.22
2022-10-09T08:04:31.514Z,101483.22
2022-10-09T08:09:33.912Z,101483.00
2022-10-09T08:14:36.273Z,101495.47
2022-10-09T08:19:38.653Z,101496.66
2022-10-09T08:24:41.036Z,101500.72
2022-10-09T08:29:43.431Z,101513.09
2022-10-09T08:34:47.138Z,101509.34
2022-10-09T08:39:49.561Z,101516.28
2022-10-09T08:44:52.015Z,101516.13
2022-10-09T08:49:59.744Z,101518.97
2022-10-09T08:55:09.112Z,101525.72
2022-10-09T09:00:19.832Z,101527.47
2022-10-09T09:05:25.014Z,101527.13
2022-10-09T09:10:43.725Z,101538.38
2022-10-09T09:16:01.425Z,101535.94
2022-10-09T09:21:17.632Z,101540.19
2022-10-09T09:26:21.547Z,101539.13
2022-10-09T09:31:26.914Z,101537.59
2022-10-09T09:36:34.345Z,101545.66
2022-10-09T09:41:36.753Z,101536.97
2022-10-09T09:46:39.991Z,101553.88
2022-10-09T09:51:42.318Z,101549.50
2022-10-09T09:57:10.861Z,101545.09
2022-10-09T10:02:15.769Z,101547.63
2022-10-09T10:07:30.283Z,101549.28
2022-10-09T10:12:32.758Z,101545.88
2022-10-09T10:17:36.081Z,101552.09
2022-10-09T10:22:38.503Z,101553.13
2022-10-09T10:27:42.673Z,101555.63
2022-10-09T10:33:04.302Z,101560.41
2022-10-09T10:38:20.602Z,101553.13
2022-10-09T10:43:45.849Z,101562.38
2022-10-09T10:48:48.700Z,101556.59
2022-10-09T10:54:06.393Z,101553.16
2022-10-09T10:59:08.667Z,101563.00
2022-10-09T11:04:26.173Z,101567.69
2022-10-09T11:10:23.489Z,101566.44
2022-10-09T11:15:30.997Z,101580.31
2022-10-09T11:20:45.822Z,101568.31
2022-10-09T11:25:56.879Z,101564.19
2022-10-09T11:31:12.957Z,101570.53
2022-10-09T11:36:27.282Z,101569.63
2022-10-09T11:41:30.697Z,101566.03
2022-10-09T11:46:54.616Z,101566.03
2022-10-09T11:52:29.418Z,101562.63
2022-10-09T11:57:33.658Z,101554.69
2022-10-09T12:02:37.296Z,101559.97
2022-10-09T12:07:40.091Z,101549.09
2022-10-09T12:12:42.888Z,101552.41
2022-10-09T12:17:50.145Z,101563.28
2022-10-09T12:23:24.675Z,101552.94
2022-10-09T12:28:28.071Z,101558.03
2022-10-09T12:33:44.588Z,101559.09
2022-10-09T12:38:47.013Z,101561.59
2022-10-09T12:43:53.998Z,101562.22
2022-10-09T12:48:56.479Z,101566.34
2022-10-09T12:53:58.894Z,101560.09
2022-10-09T12:59:02.379Z,101564.19
2022-10-09T13:04:06.426Z,101564.63
2022-10-09T13:09:09.855Z,101565.09
2022-10-09T13:14:53.714Z,101568.38
2022-10-09T13:19:58.683Z,101566.91
2022-10-09T13:25:01.167Z,101548.66
2022-10-09T13:30:03.903Z,101551.75
2022-10-09T13:35:06.423Z,101555.69
2022-10-09T13:40:15.553Z,101555.03
2022-10-09T13:45:18.024Z,101548.75
2022-10-09T13:50:20.511Z,101554.06
2022-10-09T13:55:22.829Z,101556.69
2022-10-09T14:00:25.599Z,101556.28
2022-10-09T14:05:27.982Z,101559.56
2022-10-09T14:10:30.387Z,101563.31
2022-10-09T14:15:32.696Z,101569.09
2022-10-09T14:20:35.620Z,101575.06
2022-10-09T14:25:38.131Z,101570.22
2022-10-09T14:30:42.005Z,101567.03
2022-10-09T14:35:44.420Z,101567.78
2022-10-09T14:40:46.947Z,101573.53
2022-10-09T14:45:49.347Z,101573.56
2022-10-09T14:50:51.655Z,101567.63
2022-10-09T14:55:54.091Z,101552.97
2022-10-09T15:00:56.680Z,101554.59
2022-10-09T15:06:00.615Z,101563.13
2022-10-09T15:11:03.730Z,101570.25
2022-10-09T15:16:14.692Z,101565.28
2022-10-09T15:21:22.946Z,101568.28
2022-10-09T15:26:26.522Z,101568.53
2022-10-09T15:31:31.328Z,101573.19
2022-10-09T15:36:39.754Z,101582.66
2022-10-09T15:41:43.529Z,101585.31
2022-10-09T15:46:46.822Z,101581.56
2022-10-09T15:51:49.279Z,101589.97
2022-10-09T15:56:51.744Z,101587.78
2022-10-09T16:01:54.171Z,101582.38
2022-10-09T16:06:58.179Z,101600.41
2022-10-09T16:12:00.980Z,101608.16
2022-10-09T16:17:04.695Z,101612.31
2022-10-09T16:22:08.961Z,101614.69
2022-10-09T16:27:11.370Z,101611.06
2022-10-09T16:32:13.781Z,101609.78
2022-10-09T16:37:16.410Z,101603.44
2022-10-09T16:42:18.790Z,101625.63
2022-10-09T16:47:21.191Z,101599.31
2022-10-09T16:52:23.554Z,101619.19
2022-10-09T16:57:25.914Z,101630.00
2022-10-09T17:02:28.849Z,101629.66
2022-10-09T17:07:31.266Z,101646.34
2022-10-09T17:12:33.578Z,101646.72
2022-10-09T17:17:36.037Z,101638.75
2022-10-09T17:22:38.391Z,101655.69
2022-10-09T17:27:40.814Z,101656.50
2022-10-09T17:32:43.154Z,101655.06
2022-10-09T17:37:45.559Z,101657.63
2022-10-09T17:42:48.234Z,101647.66
2022-10-09T17:47:51.362Z,101663.06
2022-10-09T17:52:55.008Z,101666.94
2022-10-09T17:57:57.911Z,101666.75
2022-10-09T18:03:00.297Z,101661.03
2022-10-09T18:08:02.763Z,101663.13
2022-10-09T18:13:06.578Z,101675.13
2022-10-09T18:18:09.896Z,101685.91
2022-10-09T18:23:12.275Z,101684.31
2022-10-09T18:28:15.396Z,101673.53
2022-10-09T18:33:17.830Z,101662.66
2022-10-09T18:38:20.168Z,101677.72
2022-10-09T18:43:22.549Z,101677.69
2022-10-09T18:48:25.169Z,101682.03
2022-10-09T18:53:27.809Z,101686.44
2022-10-09T18:58:30.234Z,101674.47
2022-10-09T19:03:32.630Z,101657.25
2022-10-09T19:08:35.603Z,101687.25
2022-10-09T19:13:38.179Z,101687.72
2022-10-09T19:18:40.734Z,101681.44
2022-10-09T19:23:44.037Z,101693.50
2022-10-09T19:28:46.677Z,101694.63
2022-10-09T19:33:49.044Z,101694.47
2022-10-09T19:38:51.402Z,101694.34
2022-10-09T19:43:53.965Z,101689.44
2022-10-09T19:48:56.469Z,101694.72
2022-10-09T19:53:59.206Z,101691.78
2022-10-09T19:59:03.112Z,101687.94
2022-10-09T20:04:08.255Z,101701.03
2022-10-09T20:09:12.404Z,101699.56
2022-10-09T20:14:14.753Z,101700.53
2022-10-09T20:19:18.322Z,101695.88
2022-10-09T20:24:20.642Z,101707.22
2022-10-09T20:29:23.073Z,101703.69
2022-10-09T20:34:27.094Z,101698.34
2022-10-09T20:39:29.486Z,101701.75
2022-10-09T20:44:31.833Z,101698.00
2022-10-09T20:49:34.608Z,101700.91
2022-10-09T20:54:37.009Z,101703.03
2022-10-09T20:59:39.443Z,101695.63
2022-10-09T21:04:41.847Z,101687.47
2022-10-09T21:09:44.358Z,101691.06
2022-10-09T21:14:46.777Z,101690.00
2022-10-09T21:20:00.582Z,101682.06
2022-10-09T21:25:02.958Z,101686.03
2022-10-09T21:30:05.806Z,101682.03
2022-10-09T21:35:08.403Z,101690.91
2022-10-09T21:40:10.946Z,101681.31
2022-10-09T21:45:13.609Z,101685.47
2022-10-09T21:50:15.970Z,101679.94
2022-10-09T21:55:18.393Z,101687.84
2022-10-09T22:00:21.293Z,101677.59
2022-10-09T22:05:23.655Z,101679.03
2022-10-09T22:10:26.023Z,101679.81
2022-10-09T22:15:28.403Z,101679.28
2022-10-09T22:20:30.758Z,101679.28
2022-10-09T22:25:34.049Z,101685.81
2022-10-09T22:30:36.697Z,101685.28
2022-10-09T22:35:39.045Z,101686.03
2022-10-09T22:40:46.385Z,101691.53
2022-10-09T22:45:49.526Z,101684.13
2022-10-09T22:50:51.934Z,101689.81
2022-10-09T22:55:54.371Z,101693.81
2022-10-09T23:00:56.775Z,101696.56
2022-10-09T23:06:13.503Z,101694.28
2022-10-09T23:11:17.023Z,101694.31
2022-10-09T23:16:19.416Z,101686.56
2022-10-09T23:21:23.504Z,101689.94
2022-10-09T23:26:28.809Z,101684.94
2022-10-09T23:31:31.447Z,101695.16
2022-10-09T23:36:34.303Z,101688.72
2022-10-09T23:41:36.683Z,101681.06
2022-10-09T23:46:39.955Z,101694.97
2022-10-09T23:51:42.297Z,101687.50
2022-10-09T23:56:44.699Z,101690.84
